Time;durP1;ratioP1;P1;durP2;ratioP2;P2;SDS_P1;SDS_P2;PMS_P1;PMS_P2;Temp;Humidity;BMP_temperature;BMP_pressure;BME280_temperature;BME280_humidity;BME280_pressure;Samples;Min_cycle;Max_cycle;Signal;HPM_P1;HPM_P2
2021/12/02 00:01:59;;;;;;;4.38;1.20;;;4.30;99.90;;;;;;4959064;28;20365;-70
2021/12/02 00:04:27;;;;;;;5.50;1.80;;;4.30;99.90;;;;;;4963024;28;20048;-70
2021/12/02 00:06:53;;;;;;;5.90;1.40;;;4.20;99.90;;;;;;4985807;28;20043;-71
2021/12/02 00:09:19;;;;;;;5.13;1.33;;;4.20;99.90;;;;;;4967733;28;20456;-69
2021/12/02 00:11:45;;;;;;;4.93;1.15;;;4.10;99.90;;;;;;4967002;28;20121;-69
2021/12/02 00:14:13;;;;;;;4.43;1.30;;;4.10;99.90;;;;;;4983103;28;20073;-69
2021/12/02 00:17:26;;;;;;;2.63;1.35;;;4.10;99.90;;;;;;4986482;28;20158;-69
2021/12/02 00:22:10;;;;;;;8.32;2.15;;;3.90;99.90;;;;;;4985499;28;20144;-69
2021/12/02 00:24:38;;;;;;;6.85;1.92;;;3.90;99.90;;;;;;4967702;28;20050;-69
2021/12/02 00:27:07;;;;;;;6.78;1.30;;;3.80;99.90;;;;;;4985452;28;20046;-69
2021/12/02 00:29:35;;;;;;;2.97;0.98;;;3.60;99.90;;;;;;5040159;28;20085;-69
2021/12/02 00:32:06;;;;;;;4.15;1.08;;;3.50;99.90;;;;;;4976881;28;20049;-69
2021/12/02 00:34:33;;;;;;;9.40;1.05;;;3.40;99.90;;;;;;4969524;28;20041;-69
2021/12/02 00:37:01;;;;;;;6.93;1.60;;;3.20;99.90;;;;;;5001589;28;20060;-69
2021/12/02 00:39:29;;;;;;;6.03;1.15;;;3.10;99.90;;;;;;4971474;28;20126;-69
2021/12/02 00:41:55;;;;;;;1.88;0.95;;;3.00;99.90;;;;;;4974138;28;20038;-69
2021/12/02 00:44:21;;;;;;;4.88;1.48;;;2.90;99.90;;;;;;4984991;28;20038;-69
2021/12/02 00:46:48;;;;;;;4.63;1.10;;;2.90;99.90;;;;;;4955957;28;20046;-69
2021/12/02 00:49:17;;;;;;;3.55;0.82;;;3.00;99.90;;;;;;4983480;28;20112;-69
2021/12/02 00:51:46;;;;;;;4.78;1.10;;;3.00;99.90;;;;;;4978259;28;20046;-69
2021/12/02 00:54:13;;;;;;;4.35;1.05;;;3.10;99.90;;;;;;4971017;28;20043;-69
2021/12/02 00:56:40;;;;;;;4.18;1.10;;;3.10;99.90;;;;;;4981404;28;20042;-69
2021/12/02 00:59:07;;;;;;;2.97;1.00;;;3.10;99.90;;;;;;4969233;28;20864;-70
2021/12/02 01:01:35;;;;;;;8.25;2.00;;;3.20;99.90;;;;;;4980688;28;20058;-70
2021/12/02 01:04:04;;;;;;;5.53;1.30;;;3.30;99.90;;;;;;4982688;28;20083;-70
2021/12/02 01:06:30;;;;;;;8.50;1.73;;;3.40;99.90;;;;;;4994498;28;20046;-70
2021/12/02 01:08:56;;;;;;;4.20;1.45;;;3.40;99.90;;;;;;4986036;28;20448;-70
2021/12/02 01:11:22;;;;;;;7.57;1.23;;;3.50;99.90;;;;;;4979093;28;20053;-70
2021/12/02 01:13:48;;;;;;;7.32;1.40;;;3.60;99.90;;;;;;4983548;28;20196;-70
2021/12/02 01:16:15;;;;;;;9.23;1.45;;;3.60;99.90;;;;;;4989708;28;20121;-70
2021/12/02 01:18:41;;;;;;;4.38;1.23;;;3.70;99.90;;;;;;4961629;28;20054;-70
2021/12/02 01:21:12;;;;;;;6.97;1.75;;;3.70;99.90;;;;;;4954623;28;20042;-70
2021/12/02 01:23:39;;;;;;;7.03;1.75;;;3.70;99.90;;;;;;4972395;28;20399;-70
2021/12/02 01:26:07;;;;;;;4.20;1.40;;;3.70;99.90;;;;;;4986525;28;20046;-70
2021/12/02 01:28:34;;;;;;;3.50;1.33;;;3.70;99.90;;;;;;4971450;28;20038;-70
2021/12/02 01:31:00;;;;;;;5.28;1.40;;;3.80;99.90;;;;;;4991950;28;20539;-70
2021/12/02 01:33:27;;;;;;;4.72;0.93;;;3.80;99.90;;;;;;4969886;28;20061;-70
2021/12/02 01:36:12;;;;;;;5.57;1.10;;;3.90;99.90;;;;;;4974163;28;20049;-69
2021/12/02 01:38:38;;;;;;;6.13;1.88;;;3.90;99.90;;;;;;4993340;28;20103;-69
2021/12/02 01:41:05;;;;;;;8.85;1.77;;;3.80;99.90;;;;;;5005450;28;20042;-69
2021/12/02 01:43:49;;;;;;;5.53;1.27;;;3.80;99.90;;;;;;4974278;28;20355;-69
2021/12/02 01:46:19;;;;;;;5.75;0.93;;;3.80;99.90;;;;;;4965535;28;20454;-69
2021/12/02 01:48:59;;;;;;;5.60;0.95;;;3.80;99.90;;;;;;4972947;28;20051;-69
2021/12/02 01:51:26;;;;;;;2.40;1.05;;;3.60;99.90;;;;;;4984495;28;20075;-69
2021/12/02 01:54:02;;;;;;;3.72;1.00;;;3.60;99.90;;;;;;4992506;28;20489;-69
2021/12/02 01:56:31;;;;;;;3.20;1.25;;;3.60;99.90;;;;;;4950058;28;20042;-70
2021/12/02 01:59:08;;;;;;;4.63;1.40;;;3.60;99.90;;;;;;4959157;28;20075;-69
2021/12/02 02:01:36;;;;;;;5.00;1.42;;;3.60;99.90;;;;;;4987423;28;20073;-70
2021/12/02 02:04:02;;;;;;;3.85;0.73;;;3.50;99.90;;;;;;4972303;28;20053;-70
2021/12/02 02:06:33;;;;;;;4.40;0.80;;;3.60;99.90;;;;;;4988317;28;20248;-70
2021/12/02 02:09:00;;;;;;;2.83;1.05;;;3.60;99.90;;;;;;4980775;28;20046;-70
2021/12/02 02:11:27;;;;;;;2.72;0.88;;;3.50;99.90;;;;;;4986428;28;20050;-69
2021/12/02 02:13:54;;;;;;;7.30;1.42;;;3.50;99.90;;;;;;4988838;28;20428;-69
2021/12/02 02:16:20;;;;;;;7.03;0.80;;;3.50;99.90;;;;;;4974208;28;20039;-69
2021/12/02 02:18:47;;;;;;;4.22;1.20;;;3.40;99.90;;;;;;4975961;28;20106;-69
2021/12/02 02:21:16;;;;;;;4.28;1.67;;;3.40;99.90;;;;;;4983885;28;20042;-69
2021/12/02 02:24:03;;;;;;;5.43;1.45;;;3.40;99.90;;;;;;4977524;28;20058;-69
2021/12/02 02:26:34;;;;;;;5.80;1.48;;;3.40;99.90;;;;;;5018978;28;20047;-69
2021/12/02 02:29:00;;;;;;;5.45;1.17;;;3.40;99.90;;;;;;5076884;28;20044;-70
2021/12/02 02:31:29;;;;;;;5.55;0.90;;;3.30;99.90;;;;;;5013456;28;20118;-70
2021/12/02 02:33:55;;;;;;;2.47;1.08;;;3.40;99.90;;;;;;4979473;28;20043;-70
2021/12/02 02:36:23;;;;;;;5.63;1.55;;;3.30;99.90;;;;;;4976417;28;20125;-70
2021/12/02 02:38:56;;;;;;;4.30;1.13;;;3.20;99.90;;;;;;4967792;28;20050;-69
2021/12/02 02:41:58;;;;;;;2.17;0.82;;;3.20;99.90;;;;;;5003426;28;20065;-70
2021/12/02 02:44:25;;;;;;;3.53;1.17;;;3.40;99.90;;;;;;4983263;28;20398;-70
2021/12/02 02:46:52;;;;;;;5.40;1.10;;;3.30;99.90;;;;;;5000883;28;20046;-70
2021/12/02 02:49:17;;;;;;;3.88;1.55;;;3.40;99.90;;;;;;4988631;28;20045;-70
2021/12/02 02:51:44;;;;;;;7.18;1.40;;;3.30;99.90;;;;;;4989848;28;20038;-69
2021/12/02 02:54:12;;;;;;;4.72;1.58;;;3.50;99.90;;;;;;4958589;28;20038;-70
2021/12/02 02:56:54;;;;;;;5.15;1.27;;;3.40;99.90;;;;;;4959212;28;20061;-70
2021/12/02 02:59:32;;;;;;;3.47;1.05;;;3.50;99.90;;;;;;4967676;28;20050;-70
2021/12/02 03:02:24;;;;;;;6.80;1.30;;;3.40;99.90;;;;;;4992894;28;20051;-70
2021/12/02 03:07:38;;;;;;;6.72;1.30;;;3.40;99.90;;;;;;4981899;28;20100;-70
2021/12/02 03:10:23;;;;;;;5.43;0.90;;;3.40;99.90;;;;;;4954557;28;20042;-69
2021/12/02 03:17:44;;;;;;;2.05;0.75;;;3.70;99.90;;;;;;4985262;28;20152;-69
2021/12/02 03:20:10;;;;;;;2.13;0.70;;;3.50;99.90;;;;;;4987206;28;20126;-69
2021/12/02 03:22:37;;;;;;;5.20;0.85;;;3.50;99.90;;;;;;4964805;28;20050;-70
2021/12/02 03:25:05;;;;;;;7.63;0.80;;;3.40;99.90;;;;;;4966895;28;20086;-69
2021/12/02 03:27:31;;;;;;;0.85;0.50;;;3.50;99.90;;;;;;4986589;28;20067;-70
2021/12/02 03:29:57;;;;;;;2.20;0.57;;;3.20;99.90;;;;;;4971899;28;20054;-70
2021/12/02 03:32:22;;;;;;;3.70;0.60;;;3.40;99.90;;;;;;4987808;28;20045;-69
2021/12/02 03:34:48;;;;;;;2.35;0.63;;;3.00;99.90;;;;;;4997814;28;20042;-69
2021/12/02 03:37:14;;;;;;;2.65;0.40;;;3.00;99.90;;;;;;4986514;28;20039;-70
2021/12/02 03:39:40;;;;;;;1.30;0.50;;;3.30;99.90;;;;;;4971182;28;20046;-70
2021/12/02 03:42:06;;;;;;;0.40;0.30;;;2.80;99.90;;;;;;4986483;28;20043;-69
2021/12/02 03:44:32;;;;;;;2.83;0.50;;;2.70;99.90;;;;;;4999683;28;20826;-69
2021/12/02 03:46:58;;;;;;;1.20;0.30;;;3.30;99.90;;;;;;4969148;28;20070;-69
2021/12/02 03:49:24;;;;;;;0.55;0.40;;;3.10;99.90;;;;;;4967707;28;20042;-69
2021/12/02 03:51:50;;;;;;;0.52;0.43;;;3.20;99.90;;;;;;4968979;28;20562;-70
2021/12/02 03:54:16;;;;;;;0.75;0.30;;;2.80;99.90;;;;;;4959797;28;20124;-69
2021/12/02 03:56:41;;;;;;;0.50;0.30;;;2.80;99.90;;;;;;4965796;28;20130;-70
2021/12/02 03:59:08;;;;;;;1.63;0.40;;;2.60;99.90;;;;;;4997947;28;20125;-70
2021/12/02 04:01:33;;;;;;;2.53;0.57;;;2.70;99.90;;;;;;5002266;28;20053;-71
2021/12/02 04:03:59;;;;;;;1.40;0.30;;;2.60;99.90;;;;;;4957887;28;20047;-70
2021/12/02 04:06:25;;;;;;;1.30;0.47;;;2.90;99.90;;;;;;4984504;28;20042;-70
2021/12/02 04:09:03;;;;;;;0.30;0.30;;;2.90;99.90;;;;;;4979286;28;20082;-70
2021/12/02 04:11:52;;;;;;;0.40;0.38;;;2.60;99.90;;;;;;4969489;28;20053;-70
2021/12/02 04:17:02;;;;;;;1.38;0.43;;;2.70;99.90;;;;;;4985647;28;20402;-69
2021/12/02 04:19:28;;;;;;;0.35;0.30;;;2.60;99.90;;;;;;4987840;28;20175;-69
2021/12/02 04:21:54;;;;;;;3.30;0.38;;;2.70;99.90;;;;;;4975985;28;20126;-69
2021/12/02 04:24:21;;;;;;;0.43;0.38;;;2.70;99.90;;;;;;4975909;28;20414;-69
2021/12/02 04:26:47;;;;;;;0.30;0.30;;;2.70;99.90;;;;;;4985128;28;20044;-69
2021/12/02 04:29:13;;;;;;;1.35;0.70;;;2.70;99.90;;;;;;4987904;28;20076;-69
2021/12/02 04:31:43;;;;;;;1.40;0.70;;;2.70;99.90;;;;;;5003505;28;20369;-70
2021/12/02 04:34:10;;;;;;;0.45;0.30;;;3.00;99.90;;;;;;4972544;28;20378;-69
2021/12/02 04:36:36;;;;;;;0.68;0.32;;;2.80;99.90;;;;;;4960192;28;20096;-69
2021/12/02 04:39:03;;;;;;;1.05;0.70;;;2.90;99.90;;;;;;4934841;28;20039;-70
2021/12/02 04:41:29;;;;;;;1.27;0.52;;;2.50;99.90;;;;;;4940038;28;20107;-69
2021/12/02 04:43:55;;;;;;;1.35;0.60;;;2.30;99.90;;;;;;4985732;28;20074;-69
2021/12/02 04:46:20;;;;;;;0.63;0.32;;;2.60;99.90;;;;;;4986041;28;20485;-70
2021/12/02 04:48:46;;;;;;;2.05;0.50;;;2.50;99.90;;;;;;4966433;28;20046;-68
2021/12/02 04:51:12;;;;;;;1.92;0.50;;;1.90;99.90;;;;;;4988431;28;20042;-69
2021/12/02 04:53:38;;;;;;;2.08;0.50;;;2.20;99.90;;;;;;4985659;28;20038;-68
2021/12/02 04:56:04;;;;;;;1.65;0.45;;;2.00;99.90;;;;;;4985822;28;20490;-69
2021/12/02 04:58:30;;;;;;;2.13;0.50;;;2.00;99.90;;;;;;4970081;28;20042;-69
2021/12/02 05:00:55;;;;;;;1.80;0.50;;;2.30;99.90;;;;;;4966593;28;20047;-69
2021/12/02 05:03:23;;;;;;;4.00;1.42;;;2.10;99.90;;;;;;4963447;28;20126;-68
2021/12/02 05:05:48;;;;;;;1.20;0.60;;;2.60;99.90;;;;;;4964313;28;20099;-69
2021/12/02 05:08:14;;;;;;;0.88;0.40;;;2.40;99.90;;;;;;4949427;28;20491;-69
2021/12/02 05:10:40;;;;;;;0.50;0.50;;;1.70;99.90;;;;;;4991878;28;20121;-68
2021/12/02 05:13:06;;;;;;;3.65;0.60;;;1.70;99.90;;;;;;4959110;28;20046;-69
2021/12/02 05:15:32;;;;;;;3.55;0.60;;;2.00;99.90;;;;;;4981946;28;20039;-69
2021/12/02 05:17:57;;;;;;;0.50;0.43;;;2.20;99.90;;;;;;4975184;28;20038;-70
2021/12/02 05:20:23;;;;;;;1.92;0.65;;;1.80;99.90;;;;;;4946880;28;20096;-70
2021/12/02 05:22:49;;;;;;;2.40;0.70;;;2.00;99.90;;;;;;4972932;28;20046;-69
2021/12/02 05:25:15;;;;;;;1.42;0.50;;;2.80;99.90;;;;;;4982229;28;20145;-71
2021/12/02 05:27:41;;;;;;;0.70;0.50;;;2.70;99.90;;;;;;4955137;28;20130;-69
2021/12/02 05:30:09;;;;;;;3.35;0.80;;;2.40;99.90;;;;;;4970436;28;20129;-69
2021/12/02 05:32:34;;;;;;;1.90;0.50;;;1.80;99.90;;;;;;4968912;28;20078;-71
2021/12/02 05:35:01;;;;;;;3.17;0.70;;;2.00;99.90;;;;;;4998146;28;20069;-68
2021/12/02 05:37:27;;;;;;;3.05;0.73;;;2.10;99.90;;;;;;4984351;28;20105;-69
2021/12/02 05:39:52;;;;;;;1.58;0.95;;;1.70;99.90;;;;;;4976071;28;20060;-70
2021/12/02 05:42:18;;;;;;;0.90;0.70;;;2.70;99.90;;;;;;4993838;28;20050;-69
2021/12/02 05:44:45;;;;;;;1.80;1.02;;;1.60;99.90;;;;;;4979089;28;20038;-70
2021/12/02 05:47:11;;;;;;;0.95;0.70;;;1.60;99.90;;;;;;4996584;28;20030;-70
2021/12/02 05:49:37;;;;;;;2.15;1.20;;;2.80;99.90;;;;;;4966183;28;20069;-69
2021/12/02 05:52:03;;;;;;;1.70;1.00;;;2.80;99.90;;;;;;4980228;28;20039;-70
2021/12/02 05:54:29;;;;;;;2.17;0.80;;;2.90;99.90;;;;;;4960226;28;20446;-69
2021/12/02 05:56:55;;;;;;;2.13;0.88;;;2.20;99.90;;;;;;5000563;28;20074;-70
2021/12/02 05:59:21;;;;;;;3.78;0.63;;;2.60;99.90;;;;;;4969670;28;20039;-70
2021/12/02 06:01:46;;;;;;;1.40;0.70;;;3.00;99.90;;;;;;4977071;28;20370;-69
2021/12/02 06:04:12;;;;;;;2.33;1.13;;;1.90;99.90;;;;;;4978277;28;20044;-70
2021/12/02 06:06:38;;;;;;;1.15;0.82;;;1.70;99.90;;;;;;4986964;28;20040;-69
2021/12/02 06:09:05;;;;;;;4.03;1.10;;;3.00;99.90;;;;;;4981455;28;20065;-70
2021/12/02 06:11:31;;;;;;;1.50;0.80;;;3.10;99.90;;;;;;4994408;28;20034;-70
2021/12/02 06:13:57;;;;;;;3.55;1.00;;;2.60;99.90;;;;;;4972056;28;20039;-69
2021/12/02 06:16:23;;;;;;;5.45;1.13;;;2.90;99.90;;;;;;4972934;28;20046;-68
2021/12/02 06:18:48;;;;;;;1.45;1.02;;;2.30;99.90;;;;;;4972664;28;20470;-69
2021/12/02 06:21:14;;;;;;;2.35;0.90;;;3.00;99.90;;;;;;4958452;28;20125;-70
2021/12/02 06:23:41;;;;;;;2.78;1.02;;;2.40;99.90;;;;;;4990005;28;20073;-71
2021/12/02 06:26:08;;;;;;;2.05;0.88;;;1.80;99.90;;;;;;4991199;28;20082;-69
2021/12/02 06:28:34;;;;;;;5.57;1.23;;;3.10;99.90;;;;;;4988558;28;20371;-69
2021/12/02 06:31:02;;;;;;;3.22;1.00;;;2.30;99.90;;;;;;4992418;28;20367;-70
2021/12/02 06:33:31;;;;;;;3.53;1.23;;;2.30;99.90;;;;;;4997145;28;20078;-70
2021/12/02 06:35:57;;;;;;;3.72;1.30;;;1.60;99.90;;;;;;4983083;28;20061;-69
2021/12/02 06:38:23;;;;;;;3.20;1.30;;;2.90;99.90;;;;;;4993042;28;20038;-70
2021/12/02 06:40:49;;;;;;;3.08;1.50;;;2.60;99.90;;;;;;4993567;28;20069;-69
2021/12/02 06:43:15;;;;;;;3.53;1.27;;;3.00;99.90;;;;;;5016122;28;20034;-69
2021/12/02 06:45:42;;;;;;;6.57;1.30;;;3.10;99.90;;;;;;5027775;28;20115;-69
2021/12/02 06:48:08;;;;;;;3.30;1.00;;;1.90;99.90;;;;;;5018141;28;20066;-70
2021/12/02 06:50:36;;;;;;;1.25;1.10;;;2.90;99.90;;;;;;4974521;28;20042;-70
2021/12/02 06:53:03;;;;;;;1.30;0.98;;;2.80;99.90;;;;;;4980640;28;20046;-69
2021/12/02 06:55:30;;;;;;;2.90;1.20;;;2.20;99.90;;;;;;4987060;28;20057;-69
2021/12/02 06:57:55;;;;;;;2.60;1.25;;;1.60;99.90;;;;;;4970833;28;20046;-71
2021/12/02 07:00:22;;;;;;;5.85;1.15;;;2.50;99.90;;;;;;4978944;28;20460;-71
2021/12/02 07:02:49;;;;;;;2.45;0.88;;;2.20;99.90;;;;;;4970265;28;20118;-70
2021/12/02 07:05:16;;;;;;;1.33;1.00;;;2.60;99.90;;;;;;4991931;28;20050;-70
2021/12/02 07:07:42;;;;;;;3.17;1.10;;;2.50;99.90;;;;;;4971995;28;20046;-70
2021/12/02 07:10:16;;;;;;;2.03;1.20;;;1.40;99.90;;;;;;4985514;28;20039;-70
2021/12/02 07:12:44;;;;;;;2.05;1.00;;;2.30;99.90;;;;;;4990210;28;20078;-69
2021/12/02 07:15:16;;;;;;;2.70;1.00;;;1.00;99.90;;;;;;4996623;28;20031;-66
2021/12/02 07:17:43;;;;;;;1.33;0.80;;;0.90;99.90;;;;;;5001143;28;20043;-69
2021/12/02 07:20:10;;;;;;;3.05;0.90;;;2.00;99.90;;;;;;4998475;28;20394;-70
2021/12/02 07:22:36;;;;;;;4.07;1.10;;;1.60;99.90;;;;;;5014207;28;20046;-69
2021/12/02 07:25:02;;;;;;;2.53;1.05;;;1.40;99.90;;;;;;5013238;28;20123;-70
2021/12/02 07:27:28;;;;;;;2.53;0.90;;;1.30;99.90;;;;;;5031368;28;20043;-70
2021/12/02 07:29:54;;;;;;;2.53;1.30;;;1.80;99.90;;;;;;4964964;28;20045;-70
2021/12/02 07:32:20;;;;;;;2.35;1.20;;;2.50;99.90;;;;;;5007988;28;20034;-69
2021/12/02 07:34:47;;;;;;;4.32;1.40;;;0.90;99.90;;;;;;5029768;28;20390;-69
2021/12/02 07:37:15;;;;;;;2.67;1.75;;;1.90;99.90;;;;;;5045344;28;20043;-70
2021/12/02 07:39:41;;;;;;;3.35;1.70;;;0.80;99.90;;;;;;4993961;28;20050;-69
2021/12/02 07:42:06;;;;;;;3.33;1.10;;;2.50;99.90;;;;;;4989324;28;20038;-70
2021/12/02 07:44:36;;;;;;;4.65;1.00;;;1.90;99.90;;;;;;4978635;28;20076;-70
2021/12/02 07:47:03;;;;;;;3.88;1.30;;;1.20;99.90;;;;;;4995367;28;20088;-70
2021/12/02 07:49:29;;;;;;;5.20;1.42;;;1.70;99.90;;;;;;5068203;28;20044;-70
2021/12/02 07:51:59;;;;;;;2.38;1.88;;;2.00;99.90;;;;;;5030469;28;20038;-70
2021/12/02 07:54:26;;;;;;;3.10;2.17;;;0.80;99.90;;;;;;5019650;28;20043;-70
2021/12/02 07:56:52;;;;;;;4.78;2.20;;;1.40;99.90;;;;;;4988665;28;20036;-70
2021/12/02 07:59:19;;;;;;;2.70;1.90;;;1.30;99.90;;;;;;5046404;28;20044;-70
2021/12/02 08:01:46;;;;;;;5.53;3.40;;;1.40;99.90;;;;;;4982445;28;20438;-71
2021/12/02 08:04:12;;;;;;;6.03;3.25;;;2.20;99.90;;;;;;4986915;28;20125;-70
2021/12/02 08:06:37;;;;;;;5.00;2.30;;;2.40;99.90;;;;;;5061532;28;20620;-70
2021/12/02 08:09:05;;;;;;;2.17;1.85;;;2.00;99.90;;;;;;5035576;28;20081;-70
2021/12/02 08:11:32;;;;;;;2.08;1.73;;;1.70;99.90;;;;;;4985914;28;20198;-70
2021/12/02 08:13:57;;;;;;;2.17;1.40;;;0.90;99.90;;;;;;5006570;28;20047;-70
2021/12/02 08:16:23;;;;;;;4.18;1.40;;;1.30;99.90;;;;;;5034171;28;20038;-70
2021/12/02 08:18:49;;;;;;;2.58;1.20;;;1.10;99.90;;;;;;4999349;28;20050;-70
2021/12/02 08:21:15;;;;;;;6.28;1.80;;;2.80;99.90;;;;;;5033633;28;20038;-70
2021/12/02 08:23:41;;;;;;;3.63;1.60;;;2.60;99.90;;;;;;5059973;28;20370;-70
2021/12/02 08:26:07;;;;;;;2.28;1.58;;;3.60;99.90;;;;;;5019748;28;20046;-70
2021/12/02 08:28:33;;;;;;;3.92;1.50;;;4.00;99.90;;;;;;5015650;28;20052;-71
2021/12/02 08:30:59;;;;;;;2.33;1.63;;;2.60;99.90;;;;;;5047193;28;20067;-70
2021/12/02 08:33:25;;;;;;;3.20;1.90;;;3.00;99.90;;;;;;4969956;28;20099;-70
2021/12/02 08:35:51;;;;;;;4.35;2.30;;;2.80;99.90;;;;;;5045336;28;20060;-71
2021/12/02 08:38:19;;;;;;;3.33;1.73;;;2.90;99.90;;;;;;4991175;28;20045;-70
2021/12/02 08:40:47;;;;;;;4.00;1.70;;;4.00;99.90;;;;;;4992854;28;20072;-70
2021/12/02 08:43:15;;;;;;;2.35;1.75;;;4.20;99.90;;;;;;4962069;28;20070;-70
2021/12/02 08:45:43;;;;;;;3.35;1.75;;;2.90;99.90;;;;;;4976685;28;20134;-70
2021/12/02 08:48:10;;;;;;;5.40;2.03;;;4.40;99.90;;;;;;4989114;28;20057;-70
2021/12/02 08:50:38;;;;;;;4.43;2.50;;;3.20;99.90;;;;;;4971681;28;20542;-69
2021/12/02 08:53:05;;;;;;;4.45;2.63;;;3.20;99.90;;;;;;4988999;28;20418;-72
2021/12/02 08:55:34;;;;;;;5.15;2.50;;;4.50;99.90;;;;;;4989162;28;20370;-70
2021/12/02 08:58:01;;;;;;;3.95;2.00;;;4.30;99.90;;;;;;4994017;28;20105;-71
2021/12/02 09:00:33;;;;;;;2.47;2.28;;;3.90;99.90;;;;;;4968042;28;20394;-70
2021/12/02 09:02:59;;;;;;;4.05;2.67;;;3.90;99.90;;;;;;4992333;28;20050;-70
2021/12/02 09:05:25;;;;;;;5.18;2.00;;;4.50;99.90;;;;;;4997645;28;20050;-71
2021/12/02 09:07:51;;;;;;;4.47;1.90;;;4.10;99.90;;;;;;4999276;28;20042;-71
2021/12/02 09:10:20;;;;;;;2.28;1.88;;;3.70;99.90;;;;;;5007239;28;20448;-70
2021/12/02 09:12:47;;;;;;;2.50;1.80;;;3.70;99.90;;;;;;4995997;28;20121;-71
2021/12/02 09:15:13;;;;;;;4.88;1.90;;;3.70;99.90;;;;;;4988249;28;20042;-71
2021/12/02 09:17:39;;;;;;;3.05;2.00;;;4.00;99.90;;;;;;4966858;28;20365;-71
2021/12/02 09:20:06;;;;;;;4.18;2.38;;;4.10;99.90;;;;;;4991586;28;20042;-70
2021/12/02 09:22:32;;;;;;;3.45;2.22;;;3.30;99.90;;;;;;4988794;28;20051;-71
2021/12/02 09:24:58;;;;;;;3.83;1.70;;;3.20;99.90;;;;;;4973697;28;20069;-70
2021/12/02 09:27:24;;;;;;;3.85;1.50;;;4.10;99.90;;;;;;4980710;28;20051;-69
2021/12/02 09:29:49;;;;;;;3.03;1.48;;;3.10;99.90;;;;;;5071576;28;20047;-70
2021/12/02 09:32:15;;;;;;;1.83;1.33;;;4.10;99.90;;;;;;5033766;28;20046;-69
2021/12/02 09:34:41;;;;;;;1.95;1.40;;;3.80;99.90;;;;;;5043946;28;20040;-71
2021/12/02 09:37:07;;;;;;;1.48;1.17;;;4.20;99.90;;;;;;5033857;28;20043;-72
2021/12/02 09:39:34;;;;;;;3.50;1.52;;;4.00;99.90;;;;;;4988041;28;20046;-68
2021/12/02 09:42:01;;;;;;;5.68;1.17;;;3.60;99.90;;;;;;4991829;28;20058;-70
2021/12/02 09:44:28;;;;;;;2.97;1.10;;;4.20;99.90;;;;;;4995194;28;20542;-70
2021/12/02 09:46:54;;;;;;;3.08;1.17;;;3.00;99.90;;;;;;4960813;28;20050;-69
2021/12/02 09:49:21;;;;;;;2.60;1.00;;;3.00;99.90;;;;;;4956926;28;20047;-70
2021/12/02 09:56:42;;;;;;;2.30;0.70;;;3.60;99.90;;;;;;4988646;28;20387;-70
2021/12/02 09:59:22;;;;;;;0.80;0.60;;;2.90;99.90;;;;;;4988233;28;20050;-72
2021/12/02 10:01:51;;;;;;;1.48;0.65;;;2.30;99.90;;;;;;4984002;28;20052;-72
2021/12/02 10:04:17;;;;;;;0.98;0.60;;;1.90;99.90;;;;;;5005248;28;20048;-70
2021/12/02 10:06:43;;;;;;;0.75;0.57;;;2.90;99.90;;;;;;5050613;28;20050;-69
2021/12/02 10:09:37;;;;;;;1.85;1.00;;;2.50;99.90;;;;;;4986696;28;20126;-69
2021/12/02 10:12:12;;;;;;;1.33;0.70;;;2.50;99.90;;;;;;4993198;28;20048;-69
2021/12/02 10:14:39;;;;;;;1.65;0.80;;;2.20;99.90;;;;;;4989957;28;20142;-72
2021/12/02 10:17:32;;;;;;;1.02;0.63;;;1.20;99.90;;;;;;4987754;28;20049;-72
2021/12/02 10:23:04;;;;;;;1.30;1.10;;;1.70;99.90;;;;;;4987953;28;20141;-71
2021/12/02 10:25:33;;;;;;;1.20;1.00;;;1.20;99.90;;;;;;4992582;28;20100;-72
2021/12/02 10:28:09;;;;;;;2.38;1.00;;;2.30;99.90;;;;;;4991306;28;20046;-69
2021/12/02 10:30:46;;;;;;;1.17;0.93;;;1.90;99.90;;;;;;4988559;28;20081;-72
2021/12/02 10:33:13;;;;;;;3.03;1.13;;;2.20;99.90;;;;;;4978396;28;20045;-72
2021/12/02 10:35:46;;;;;;;1.92;1.70;;;1.40;99.90;;;;;;4991931;28;20089;-72
2021/12/02 10:38:41;;;;;;;2.17;1.48;;;2.30;99.90;;;;;;5001910;28;20045;-72
2021/12/02 10:41:12;;;;;;;1.92;1.30;;;3.40;99.90;;;;;;4975323;28;20054;-70
2021/12/02 10:44:12;;;;;;;3.10;1.67;;;2.50;99.90;;;;;;4964758;28;20155;-72
2021/12/02 10:46:50;;;;;;;1.67;1.20;;;3.60;99.90;;;;;;4972677;28;20075;-72
2021/12/02 10:49:16;;;;;;;2.13;0.95;;;3.00;99.90;;;;;;4989948;28;20054;-70
2021/12/02 10:51:46;;;;;;;1.83;0.90;;;3.20;99.90;;;;;;4971298;28;20049;-70
2021/12/02 10:54:18;;;;;;;0.95;0.88;;;3.00;99.90;;;;;;4959755;28;20042;-70
2021/12/02 10:56:50;;;;;;;1.30;0.80;;;2.70;99.90;;;;;;4961597;28;20039;-71
2021/12/02 10:59:34;;;;;;;3.03;0.77;;;1.80;99.90;;;;;;4958369;28;20107;-70
2021/12/02 11:02:16;;;;;;;0.80;0.63;;;3.10;99.90;;;;;;4991820;28;20053;-71
2021/12/02 11:04:44;;;;;;;1.75;1.20;;;3.10;99.90;;;;;;4973230;28;20305;-72
2021/12/02 11:07:13;;;;;;;0.82;0.70;;;2.70;99.90;;;;;;4967513;28;20062;-72
2021/12/02 11:09:40;;;;;;;1.98;1.05;;;1.70;99.90;;;;;;4962988;28;20141;-71
2021/12/02 11:12:11;;;;;;;1.17;1.08;;;2.50;99.90;;;;;;5008121;28;20440;-70
2021/12/02 11:14:53;;;;;;;1.83;0.90;;;2.70;99.90;;;;;;4988265;28;20474;-70
2021/12/02 11:17:19;;;;;;;2.25;0.70;;;2.80;99.90;;;;;;5008358;28;20030;-71
2021/12/02 11:19:48;;;;;;;0.50;0.50;;;2.50;99.90;;;;;;4984068;28;20050;-71
2021/12/02 11:22:17;;;;;;;1.63;0.70;;;2.70;99.90;;;;;;4953584;28;20947;-69
2021/12/02 11:24:43;;;;;;;0.70;0.70;;;2.80;99.90;;;;;;4953811;28;20394;-68
2021/12/02 11:27:14;;;;;;;1.73;0.70;;;2.80;99.90;;;;;;4979517;28;20107;-68
2021/12/02 11:30:04;;;;;;;2.08;0.70;;;2.80;99.90;;;;;;4971517;28;20035;-69
2021/12/02 11:32:39;;;;;;;0.75;0.73;;;1.90;99.90;;;;;;4995446;28;20474;-67
2021/12/02 11:35:36;;;;;;;1.25;0.80;;;2.90;99.90;;;;;;4971461;28;20049;-68
2021/12/02 11:38:17;;;;;;;1.67;0.80;;;2.30;99.90;;;;;;4997576;28;20494;-70
2021/12/02 11:40:49;;;;;;;1.23;0.70;;;2.50;99.90;;;;;;4989069;28;20099;-68
2021/12/02 11:43:18;;;;;;;1.48;0.65;;;3.20;99.90;;;;;;4975809;28;20043;-68
2021/12/02 11:45:47;;;;;;;0.95;0.60;;;2.20;99.90;;;;;;4977753;28;20046;-68
2021/12/02 11:48:15;;;;;;;0.55;0.50;;;2.90;99.90;;;;;;4976660;28;20042;-69
2021/12/02 11:50:41;;;;;;;2.55;0.70;;;2.50;99.90;;;;;;4972272;28;20117;-69
2021/12/02 11:53:07;;;;;;;4.03;0.70;;;2.60;99.90;;;;;;4964957;28;20051;-70
2021/12/02 11:55:38;;;;;;;1.05;0.90;;;2.10;99.90;;;;;;4971844;28;20046;-71
2021/12/02 11:58:04;;;;;;;1.65;0.95;;;2.20;99.90;;;;;;4972042;28;20058;-69
2021/12/02 12:00:31;;;;;;;0.70;0.70;;;2.50;99.90;;;;;;4975822;28;20061;-70
2021/12/02 12:03:22;;;;;;;1.40;0.65;;;2.10;99.90;;;;;;4955177;28;20064;-71
2021/12/02 12:05:55;;;;;;;2.05;0.90;;;3.30;99.90;;;;;;4955203;28;20038;-70
2021/12/02 12:08:35;;;;;;;1.90;0.70;;;2.80;99.90;;;;;;4972114;28;20125;-71
2021/12/02 12:11:22;;;;;;;2.45;0.93;;;3.30;99.90;;;;;;4970458;28;20038;-70
2021/12/02 12:13:57;;;;;;;1.65;0.80;;;2.00;99.90;;;;;;4988501;28;20053;-70
2021/12/02 12:16:34;;;;;;;1.30;0.88;;;3.20;99.90;;;;;;4971792;28;20091;-71
2021/12/02 12:19:21;;;;;;;1.60;1.02;;;2.10;99.90;;;;;;5056321;28;20584;-70
2021/12/02 12:21:56;;;;;;;3.35;1.00;;;3.30;99.90;;;;;;4955600;28;20043;-71
2021/12/02 12:24:40;;;;;;;;;;;3.40;99.90;;;;;;4963266;28;20057;-71
2021/12/02 12:27:20;;;;;;;2.22;0.85;;;3.40;99.90;;;;;;4989598;28;19918;-72
2021/12/02 12:29:49;;;;;;;0.80;0.70;;;3.30;99.90;;;;;;4958468;28;20482;-70
2021/12/02 12:34:57;;;;;;;1.85;1.02;;;3.20;99.90;;;;;;4958423;28;20108;-70
2021/12/02 12:40:20;;;;;;;1.15;0.73;;;2.90;99.90;;;;;;4971061;28;20058;-69
2021/12/02 12:42:52;;;;;;;0.90;0.70;;;1.50;99.90;;;;;;4954484;28;20089;-69
2021/12/02 12:45:26;;;;;;;0.82;0.80;;;2.00;99.90;;;;;;4963227;28;20122;-70
2021/12/02 12:47:58;;;;;;;1.00;0.77;;;1.50;99.90;;;;;;4970190;28;20043;-69
2021/12/02 12:50:28;;;;;;;0.60;0.50;;;2.70;99.90;;;;;;4977400;28;20046;-71
2021/12/02 12:53:02;;;;;;;1.83;0.70;;;1.50;99.90;;;;;;4988616;28;20117;-72
2021/12/02 12:55:30;;;;;;;0.98;0.70;;;2.40;99.90;;;;;;4966281;28;20051;-72
2021/12/02 12:58:10;;;;;;;0.60;0.57;;;2.40;99.90;;;;;;4970982;28;20085;-71
2021/12/02 13:00:39;;;;;;;0.70;0.70;;;3.20;99.90;;;;;;4953558;28;20490;-72
2021/12/02 13:03:10;;;;;;;0.70;0.68;;;1.60;99.90;;;;;;4989099;28;20049;-71
2021/12/02 13:05:45;;;;;;;0.82;0.80;;;1.70;99.90;;;;;;4983880;28;20043;-71
2021/12/02 13:08:21;;;;;;;1.08;0.77;;;3.20;99.90;;;;;;4988134;28;20109;-71
2021/12/02 13:10:55;;;;;;;3.22;1.58;;;2.00;99.90;;;;;;4988095;28;20095;-71
2021/12/02 13:13:27;;;;;;;1.87;1.20;;;2.20;99.90;;;;;;4961761;28;20401;-72
2021/12/02 13:16:07;;;;;;;2.13;0.88;;;2.00;99.90;;;;;;4994444;28;20038;-71
2021/12/02 13:18:36;;;;;;;0.98;0.90;;;2.70;99.90;;;;;;4976418;28;20042;-72
2021/12/02 13:21:24;;;;;;;0.68;0.60;;;2.50;99.90;;;;;;4948619;28;20054;-72
2021/12/02 13:24:06;;;;;;;1.70;0.70;;;3.30;99.90;;;;;;4991441;28;20131;-69
2021/12/02 13:26:37;;;;;;;1.05;0.70;;;2.70;99.90;;;;;;4968802;28;20062;-71
2021/12/02 13:29:21;;;;;;;1.17;0.70;;;2.50;99.90;;;;;;4983038;28;20050;-71
2021/12/02 13:31:53;;;;;;;1.25;0.60;;;2.50;99.90;;;;;;4977689;28;20096;-71
2021/12/02 13:34:22;;;;;;;1.13;0.60;;;2.80;99.90;;;;;;4977977;28;20053;-71
2021/12/02 13:36:58;;;;;;;1.33;0.60;;;3.50;99.90;;;;;;4960424;28;20046;-70